PWSweather.com
Personal Weather Stations
Station Observations
EA5BZ
Nuevo Altabix, ElcheES

Nuevo AltabixElcheES

Lat: 38.276, Lon: -0.671

Elevation: 0

Station Type: Oregon Scientific WMR-300

http://meteoelche.es

Latest ConditionsUpdated 3:30:00 AM GMT+01:01 Sunday, Dec 16, 2018
Currently Today's Max Today's Min Today's Average
Temperature 57.8°F14.3°C 59.5°F15.3°C 56.8°F13.8°C 58.7°F14.8°C
Dew Point 46.6°F8.1°C 47.4°F8.6°C 46.5°F8.1°C 47.0°F8.3°C
Winds 8.7 mph WSW14.0 kmh WSW 10.7 mph -17.2 kmh - - 7.8 mph 12.6 kmh
Wind Gusts 12.5 mph20.1 kmh 16.8 mph27.0 kmh - -
Humidity 66% 69% 63% 65%
Pressure 30.15 in1021.0 mb 30.21 in1023.0 mb 30.15 in1021.0 mb -
Hour Temp Dew Point Humidity Winds Wind Gusts Pressure Precip Precip Rate Daily Precip Total
03:30 AM 57.8°F14.3°C 46.6°F8.1°C 66% 8.7 mph WSW14.0 kmh WSW 12.5 mph20.1 kmh 30.15 in1021.0 mb 0.00 in0.0 mm 0.00 in0.0 mm 0.00 in0.0 mm
03:25 AM 57.9°F14.4°C 46.6°F8.1°C 66% 8.6 mph WSW13.8 kmh WSW 11.2 mph18.0 kmh 30.15 in1021.0 mb 0.00 in0.0 mm 0.00 in0.0 mm 0.00 in0.0 mm
03:20 AM 57.9°F14.4°C 46.6°F8.1°C 66% 8.5 mph WSW13.7 kmh WSW 13.0 mph20.9 kmh 30.16 in1021.3 mb 0.00 in0.0 mm 0.00 in0.0 mm 0.00 in0.0 mm
03:15 AM 57.7°F14.3°C 46.5°F8.1°C 66% 8.5 mph WSW13.7 kmh WSW 13.4 mph21.6 kmh 30.16 in1021.3 mb 0.00 in0.0 mm 0.00 in0.0 mm 0.00 in0.0 mm
03:10 AM 57.7°F14.3°C 46.5°F8.1°C 66% 8.5 mph WSW13.7 kmh WSW 13.6 mph21.9 kmh 30.16 in1021.3 mb 0.00 in0.0 mm 0.00 in0.0 mm 0.00 in0.0 mm
03:05 AM 57.7°F14.3°C 46.8°F8.2°C 67% 7.0 mph WSW11.3 kmh WSW 14.1 mph22.7 kmh 30.16 in1021.3 mb 0.00 in0.0 mm 0.00 in0.0 mm 0.00 in0.0 mm
03:00 AM 57.6°F14.2°C 46.7°F8.2°C 67% 6.5 mph WSW10.5 kmh WSW 12.5 mph20.1 kmh 30.16 in1021.3 mb 0.00 in0.0 mm 0.00 in0.0 mm 0.00 in0.0 mm
02:55 AM 57.4°F14.1°C 46.8°F8.2°C 68% 6.5 mph WSW10.5 kmh WSW 14.5 mph23.3 kmh 30.16 in1021.3 mb 0.00 in0.0 mm 0.00 in0.0 mm 0.00 in0.0 mm
02:50 AM 57.4°F14.1°C 46.9°F8.3°C 68% 6.5 mph WSW10.5 kmh WSW 8.7 mph14.0 kmh 30.16 in1021.3 mb 0.00 in0.0 mm 0.00 in0.0 mm 0.00 in0.0 mm
02:45 AM 57.2°F14.0°C 46.9°F8.3°C 68% 6.8 mph WSW10.9 kmh WSW 10.7 mph17.2 kmh 30.16 in1021.3 mb 0.00 in0.0 mm 0.00 in0.0 mm 0.00 in0.0 mm
02:40 AM 57.0°F13.9°C 46.9°F8.3°C 69% 6.9 mph WSW11.1 kmh WSW 10.1 mph16.3 kmh 30.16 in1021.3 mb 0.00 in0.0 mm 0.00 in0.0 mm 0.00 in0.0 mm
02:35 AM 56.8°F13.8°C 46.8°F8.2°C 69% 6.4 mph SW10.3 kmh SW 8.5 mph13.7 kmh 30.16 in1021.3 mb 0.00 in0.0 mm 0.00 in0.0 mm 0.00 in0.0 mm
02:30 AM 56.9°F13.8°C 46.7°F8.2°C 69% 6.3 mph SW10.1 kmh SW 12.3 mph19.8 kmh 30.16 in1021.3 mb 0.00 in0.0 mm 0.00 in0.0 mm 0.00 in0.0 mm
02:25 AM 57.3°F14.1°C 46.6°F8.1°C 67% 7.1 mph SW11.4 kmh SW 7.6 mph12.2 kmh 30.17 in1021.7 mb 0.00 in0.0 mm 0.00 in0.0 mm 0.00 in0.0 mm
02:20 AM 57.8°F14.3°C 46.6°F8.1°C 66% 7.4 mph SW11.9 kmh SW 8.7 mph14.0 kmh 30.17 in1021.7 mb 0.00 in0.0 mm 0.00 in0.0 mm 0.00 in0.0 mm
02:15 AM 58.4°F14.7°C 46.8°F8.2°C 65% 7.9 mph SW12.7 kmh SW 11.2 mph18.0 kmh 30.17 in1021.7 mb 0.00 in0.0 mm 0.00 in0.0 mm 0.00 in0.0 mm
02:10 AM 59.1°F15.1°C 46.8°F8.2°C 64% 8.1 mph WSW13.0 kmh WSW 11.2 mph18.0 kmh 30.17 in1021.7 mb 0.00 in0.0 mm 0.00 in0.0 mm 0.00 in0.0 mm
02:05 AM 59.5°F15.3°C 46.9°F8.3°C 63% 10.0 mph WSW16.1 kmh WSW 10.7 mph17.2 kmh 30.17 in1021.7 mb 0.00 in0.0 mm 0.00 in0.0 mm 0.00 in0.0 mm
02:00 AM 59.5°F15.3°C 47.3°F8.5°C 64% 10.7 mph WSW17.2 kmh WSW 11.9 mph19.2 kmh 30.17 in1021.7 mb 0.00 in0.0 mm 0.00 in0.0 mm 0.00 in0.0 mm
01:55 AM 59.4°F15.2°C 47.2°F8.4°C 64% 10.4 mph WSW16.7 kmh WSW 16.8 mph27.0 kmh 30.17 in1021.7 mb 0.00 in0.0 mm 0.00 in0.0 mm 0.00 in0.0 mm
01:50 AM 59.2°F15.1°C 47.0°F8.3°C 64% 10.3 mph WSW16.6 kmh WSW 13.6 mph21.9 kmh 30.17 in1021.7 mb 0.00 in0.0 mm 0.00 in0.0 mm 0.00 in0.0 mm
01:45 AM 59.2°F15.1°C 47.0°F8.3°C 64% 9.5 mph WSW15.3 kmh WSW 14.1 mph22.7 kmh 30.17 in1021.7 mb 0.00 in0.0 mm 0.00 in0.0 mm 0.00 in0.0 mm
01:40 AM 59.3°F15.2°C 47.1°F8.4°C 64% 9.2 mph WSW14.8 kmh WSW 14.5 mph23.3 kmh 30.17 in1021.7 mb 0.00 in0.0 mm 0.00 in0.0 mm 0.00 in0.0 mm
01:35 AM 59.4°F15.2°C 47.2°F8.4°C 64% 8.0 mph WSW12.9 kmh WSW 15.2 mph24.5 kmh 30.17 in1021.7 mb 0.00 in0.0 mm 0.00 in0.0 mm 0.00 in0.0 mm
01:30 AM 59.4°F15.2°C 47.2°F8.4°C 64% 7.6 mph WSW12.2 kmh WSW 14.8 mph23.8 kmh 30.17 in1021.7 mb 0.00 in0.0 mm 0.00 in0.0 mm 0.00 in0.0 mm
01:25 AM 59.5°F15.3°C 47.3°F8.5°C 64% 8.3 mph WSW13.4 kmh WSW 10.3 mph16.6 kmh 30.18 in1022.0 mb 0.00 in0.0 mm 0.00 in0.0 mm 0.00 in0.0 mm
01:20 AM 59.5°F15.3°C 47.3°F8.5°C 64% 8.5 mph W13.7 kmh W 13.4 mph21.6 kmh 30.18 in1022.0 mb 0.00 in0.0 mm 0.00 in0.0 mm 0.00 in0.0 mm
01:15 AM 59.5°F15.3°C 47.3°F8.5°C 64% 8.7 mph W14.0 kmh W 15.7 mph25.3 kmh 30.18 in1022.0 mb 0.00 in0.0 mm 0.00 in0.0 mm 0.00 in0.0 mm
01:10 AM 59.4°F15.2°C 47.3°F8.5°C 64% 8.7 mph WSW14.0 kmh WSW 14.5 mph23.3 kmh 30.18 in1022.0 mb 0.00 in0.0 mm 0.00 in0.0 mm 0.00 in0.0 mm
01:05 AM 59.3°F15.2°C 47.4°F8.6°C 65% 8.2 mph WSW13.2 kmh WSW 16.3 mph26.2 kmh 30.19 in1022.4 mb 0.00 in0.0 mm 0.00 in0.0 mm 0.00 in0.0 mm
01:00 AM 59.2°F15.1°C 47.0°F8.3°C 64% 8.1 mph WSW13.0 kmh WSW 13.6 mph21.9 kmh 30.19 in1022.4 mb 0.00 in0.0 mm 0.00 in0.0 mm 0.00 in0.0 mm
12:55 AM 59.3°F15.2°C 47.1°F8.4°C 64% 7.6 mph WSW12.2 kmh WSW 13.0 mph20.9 kmh 30.19 in1022.4 mb 0.00 in0.0 mm 0.00 in0.0 mm 0.00 in0.0 mm
12:50 AM 59.4°F15.2°C 47.2°F8.4°C 64% 7.4 mph WSW11.9 kmh WSW 11.9 mph19.2 kmh 30.19 in1022.4 mb 0.00 in0.0 mm 0.00 in0.0 mm 0.00 in0.0 mm
12:45 AM 59.4°F15.2°C 47.2°F8.4°C 64% 7.4 mph WSW11.9 kmh WSW 10.3 mph16.6 kmh 30.19 in1022.4 mb 0.00 in0.0 mm 0.00 in0.0 mm 0.00 in0.0 mm
12:40 AM 59.2°F15.1°C 47.3°F8.5°C 65% 7.4 mph W11.9 kmh W 10.3 mph16.6 kmh 30.19 in1022.4 mb 0.00 in0.0 mm 0.00 in0.0 mm 0.00 in0.0 mm
12:35 AM 59.2°F15.1°C 47.1°F8.4°C 64% 7.5 mph W12.1 kmh W 14.8 mph23.8 kmh 30.19 in1022.4 mb 0.00 in0.0 mm 0.00 in0.0 mm 0.00 in0.0 mm
12:30 AM 59.2°F15.1°C 47.0°F8.3°C 64% 7.6 mph W12.2 kmh W 10.3 mph16.6 kmh 30.19 in1022.4 mb 0.00 in0.0 mm 0.00 in0.0 mm 0.00 in0.0 mm
12:25 AM 59.4°F15.2°C 47.2°F8.4°C 64% 7.4 mph WSW11.9 kmh WSW 9.6 mph15.4 kmh 30.20 in1022.7 mb 0.00 in0.0 mm 0.00 in0.0 mm 0.00 in0.0 mm
12:20 AM 59.4°F15.2°C 47.2°F8.4°C 64% 7.4 mph WSW11.9 kmh WSW 10.1 mph16.3 kmh 30.20 in1022.7 mb 0.00 in0.0 mm 0.00 in0.0 mm 0.00 in0.0 mm
12:15 AM 59.4°F15.2°C 47.2°F8.4°C 64% 6.6 mph WSW10.6 kmh WSW 10.7 mph17.2 kmh 30.20 in1022.7 mb 0.00 in0.0 mm 0.00 in0.0 mm 0.00 in0.0 mm
12:10 AM 59.4°F15.2°C 47.2°F8.4°C 64% 6.3 mph WSW10.1 kmh WSW 11.4 mph18.3 kmh 30.20 in1022.7 mb 0.00 in0.0 mm 0.00 in0.0 mm 0.00 in0.0 mm
12:05 AM 59.4°F15.2°C 47.4°F8.6°C 64% 4.8 mph WSW7.7 kmh WSW 10.7 mph17.2 kmh 30.21 in1023.0 mb 0.00 in0.0 mm 0.00 in0.0 mm 0.00 in0.0 mm
12:00 AM 59.4°F15.2°C 47.2°F8.4°C 64% 4.3 mph SW6.9 kmh SW 10.7 mph17.2 kmh 30.21 in1023.0 mb 0.00 in0.0 mm 0.00 in0.0 mm 0.00 in0.0 mm